Time;durP1;ratioP1;P1;durP2;ratioP2;P2;SDS_P1;SDS_P2;PMS_P1;PMS_P2;Temp;Humidity;BMP_temperature;BMP_pressure;BME280_temperature;BME280_humidity;BME280_pressure;Samples;Min_cycle;Max_cycle;Signal;HPM_P1;HPM_P2
2024/01/24 00:01:55;;;;;;;18.00;9.97;;;;;;;;;;780819;179;918981;-67
2024/01/24 00:04:22;;;;;;;16.23;7.70;;;;;;;;;;770673;180;919563;-67
2024/01/24 00:06:47;;;;;;;20.37;6.33;;;;;;;;;;774272;180;918723;-67
2024/01/24 00:09:13;;;;;;;21.40;6.13;;;;;;;;;;777550;180;921522;-67
2024/01/24 00:11:39;;;;;;;11.30;6.20;;;;;;;;;;771428;180;920402;-67
2024/01/24 00:14:04;;;;;;;11.32;5.40;;;;;;;;;;770828;180;922114;-66
2024/01/24 00:16:30;;;;;;;16.40;7.10;;;;;;;;;;766315;180;1022353;-65
2024/01/24 00:18:56;;;;;;;11.48;6.43;;;;;;;;;;771022;180;921569;-67
2024/01/24 00:21:22;;;;;;;14.60;5.63;;;;;;;;;;776121;180;1022015;-67
2024/01/24 00:23:48;;;;;;;13.07;6.03;;;;;;;;;;773173;180;1020155;-67
2024/01/24 00:26:14;;;;;;;12.40;4.70;;;;;;;;;;777677;180;921885;-68
2024/01/24 00:28:40;;;;;;;11.10;5.73;;;;;;;;;;773862;180;920769;-67
2024/01/24 00:31:06;;;;;;;22.67;6.50;;;;;;;;;;771891;179;911603;-67
2024/01/24 00:33:31;;;;;;;13.83;5.73;;;;;;;;;;778860;180;911140;-67
2024/01/24 00:35:57;;;;;;;13.80;6.00;;;;;;;;;;774750;180;1024018;-67
2024/01/24 00:38:23;;;;;;;8.10;4.80;;;;;;;;;;776287;178;942118;-67
2024/01/24 00:40:49;;;;;;;20.23;4.80;;;;;;;;;;780921;179;917903;-67
2024/01/24 00:43:15;;;;;;;11.43;5.20;;;;;;;;;;772419;179;918237;-67
2024/01/24 00:45:41;;;;;;;15.75;5.07;;;;;;;;;;775741;179;1030563;-67
2024/01/24 00:48:07;;;;;;;11.40;4.17;;;;;;;;;;778236;180;1226392;-67
2024/01/24 00:50:34;;;;;;;8.70;4.80;;;;;;;;;;774431;180;918524;-67
2024/01/24 00:52:59;;;;;;;6.73;4.23;;;;;;;;;;775975;178;919484;-67
2024/01/24 00:55:26;;;;;;;9.70;4.97;;;;;;;;;;776253;180;918046;-67
2024/01/24 00:57:52;;;;;;;13.87;4.90;;;;;;;;;;781728;179;920034;-67
2024/01/24 01:00:17;;;;;;;16.57;4.60;;;;;;;;;;767105;180;919139;-67
2024/01/24 01:02:43;;;;;;;13.73;4.20;;;;;;;;;;774245;180;919273;-68
2024/01/24 01:05:09;;;;;;;9.63;4.10;;;;;;;;;;780591;179;919397;-67
2024/01/24 01:07:35;;;;;;;8.63;4.23;;;;;;;;;;774285;180;918757;-67
2024/01/24 01:10:00;;;;;;;7.57;3.42;;;;;;;;;;770808;180;931791;-67
2024/01/24 01:12:26;;;;;;;11.83;4.30;;;;;;;;;;779361;180;914716;-68
2024/01/24 01:14:52;;;;;;;5.97;3.50;;;;;;;;;;770445;180;919956;-69
2024/01/24 01:17:18;;;;;;;6.10;3.87;;;;;;;;;;772102;179;918760;-69
2024/01/24 01:19:44;;;;;;;8.97;3.20;;;;;;;;;;773026;180;959159;-68
2024/01/24 01:22:10;;;;;;;10.00;4.00;;;;;;;;;;776745;180;919777;-69
2024/01/24 01:24:35;;;;;;;7.10;3.43;;;;;;;;;;772336;179;919437;-69
2024/01/24 01:27:02;;;;;;;19.07;3.43;;;;;;;;;;771451;180;918701;-69
2024/01/24 01:29:27;;;;;;;11.50;3.17;;;;;;;;;;777233;179;918869;-69
2024/01/24 01:31:53;;;;;;;12.60;3.60;;;;;;;;;;773912;180;918834;-69
2024/01/24 01:34:19;;;;;;;5.00;2.67;;;;;;;;;;774681;180;1020057;-70
2024/01/24 01:36:45;;;;;;;8.77;3.20;;;;;;;;;;767366;180;938030;-70
2024/01/24 01:39:10;;;;;;;14.20;3.20;;;;;;;;;;761713;182;923560;-70
2024/01/24 01:41:36;;;;;;;6.40;4.30;;;;;;;;;;768766;180;928504;-70
2024/01/24 01:44:02;;;;;;;6.40;3.30;;;;;;;;;;780440;180;920617;-69
2024/01/24 01:46:28;;;;;;;18.83;3.10;;;;;;;;;;772374;180;920955;-70
2024/01/24 01:48:54;;;;;;;10.40;2.80;;;;;;;;;;771862;177;920160;-70
2024/01/24 01:51:20;;;;;;;12.80;2.70;;;;;;;;;;769624;180;920643;-70
2024/01/24 01:53:45;;;;;;;10.23;3.47;;;;;;;;;;772539;179;917684;-70
2024/01/24 01:56:11;;;;;;;9.13;3.13;;;;;;;;;;775494;180;918579;-70
2024/01/24 01:58:37;;;;;;;6.93;2.70;;;;;;;;;;773770;179;919484;-71
2024/01/24 02:01:03;;;;;;;3.80;2.30;;;;;;;;;;780197;179;919546;-70
2024/01/24 02:03:29;;;;;;;4.23;2.77;;;;;;;;;;773082;179;1020717;-70
2024/01/24 02:05:55;;;;;;;6.80;2.60;;;;;;;;;;769584;179;921505;-71
2024/01/24 02:08:21;;;;;;;10.60;2.53;;;;;;;;;;781947;179;915432;-70
2024/01/24 02:10:46;;;;;;;10.20;4.03;;;;;;;;;;774085;179;1011125;-70
2024/01/24 02:13:12;;;;;;;4.00;2.78;;;;;;;;;;772151;180;915715;-69
2024/01/24 02:15:38;;;;;;;7.07;2.90;;;;;;;;;;779813;178;1014962;-70
2024/01/24 02:18:05;;;;;;;5.30;2.47;;;;;;;;;;764392;182;925440;-70
2024/01/24 02:20:31;;;;;;;6.33;2.17;;;;;;;;;;764505;179;919446;-71
2024/01/24 02:22:56;;;;;;;8.30;2.20;;;;;;;;;;775627;179;918935;-71
2024/01/24 02:25:22;;;;;;;7.67;2.53;;;;;;;;;;781921;179;918578;-71
2024/01/24 02:27:48;;;;;;;14.53;3.07;;;;;;;;;;775907;177;919037;-72
2024/01/24 02:30:14;;;;;;;6.80;3.13;;;;;;;;;;761462;183;918254;-71
2024/01/24 02:32:40;;;;;;;8.70;2.50;;;;;;;;;;772389;180;918568;-71
2024/01/24 02:35:06;;;;;;;4.37;2.13;;;;;;;;;;774957;179;920801;-70
2024/01/24 02:37:31;;;;;;;7.20;2.70;;;;;;;;;;774969;179;819031;-71
2024/01/24 02:39:57;;;;;;;4.40;2.30;;;;;;;;;;776965;179;816986;-71
2024/01/24 02:42:23;;;;;;;8.43;2.70;;;;;;;;;;771882;179;918685;-72
2024/01/24 02:44:49;;;;;;;5.43;2.53;;;;;;;;;;776616;179;918966;-71
2024/01/24 02:47:16;;;;;;;8.30;2.10;;;;;;;;;;777433;179;1038639;-71
2024/01/24 02:49:41;;;;;;;8.70;2.93;;;;;;;;;;779891;180;908760;-71
2024/01/24 02:52:06;;;;;;;10.87;2.30;;;;;;;;;;771906;180;919153;-70
2024/01/24 02:54:32;;;;;;;7.28;2.40;;;;;;;;;;770655;180;918635;-71
2024/01/24 02:56:58;;;;;;;5.70;2.30;;;;;;;;;;774089;179;929787;-71
2024/01/24 02:59:24;;;;;;;4.80;2.00;;;;;;;;;;770593;180;919484;-71
2024/01/24 03:01:50;;;;;;;9.83;2.07;;;;;;;;;;775091;179;918701;-71
2024/01/24 03:04:16;;;;;;;5.70;2.00;;;;;;;;;;781128;179;713947;-70
2024/01/24 03:06:41;;;;;;;5.40;1.83;;;;;;;;;;776314;180;902393;-70
2024/01/24 03:09:08;;;;;;;6.13;2.17;;;;;;;;;;774653;179;815890;-71
2024/01/24 03:11:33;;;;;;;7.80;2.50;;;;;;;;;;770986;180;916419;-71
2024/01/24 03:13:59;;;;;;;6.33;3.03;;;;;;;;;;773415;179;947608;-71
2024/01/24 03:16:25;;;;;;;8.07;2.40;;;;;;;;;;776340;179;818204;-71
2024/01/24 03:18:51;;;;;;;6.33;2.73;;;;;;;;;;773707;179;919560;-71
2024/01/24 03:21:17;;;;;;;11.30;3.07;;;;;;;;;;781490;180;816122;-71
2024/01/24 03:23:42;;;;;;;7.00;2.40;;;;;;;;;;774740;180;918994;-71
2024/01/24 03:26:08;;;;;;;11.83;2.63;;;;;;;;;;774436;179;843077;-71
2024/01/24 03:28:34;;;;;;;9.38;2.87;;;;;;;;;;778332;180;914982;-71
2024/01/24 03:31:00;;;;;;;5.40;2.57;;;;;;;;;;763368;180;919521;-71
2024/01/24 03:33:26;;;;;;;6.07;1.93;;;;;;;;;;770954;179;920457;-72
2024/01/24 03:35:52;;;;;;;7.20;2.50;;;;;;;;;;775944;180;1006659;-71
2024/01/24 03:38:18;;;;;;;10.13;2.57;;;;;;;;;;770389;177;845021;-70
2024/01/24 03:40:43;;;;;;;5.53;2.47;;;;;;;;;;766142;179;920480;-70
2024/01/24 03:43:10;;;;;;;4.30;1.43;;;;;;;;;;768019;180;920979;-70
2024/01/24 03:45:35;;;;;;;9.37;2.73;;;;;;;;;;779088;179;918561;-70
2024/01/24 03:48:01;;;;;;;4.53;2.30;;;;;;;;;;776881;179;907652;-70
2024/01/24 03:50:27;;;;;;;10.90;2.90;;;;;;;;;;775704;179;815976;-70
2024/01/24 03:52:53;;;;;;;12.67;3.40;;;;;;;;;;782817;180;810645;-71
2024/01/24 03:55:18;;;;;;;5.70;1.97;;;;;;;;;;772735;180;816932;-72
2024/01/24 03:57:44;;;;;;;8.10;2.17;;;;;;;;;;770155;179;920897;-71
2024/01/24 04:00:11;;;;;;;8.63;3.17;;;;;;;;;;775467;180;922474;-70
2024/01/24 04:02:36;;;;;;;3.00;2.10;;;;;;;;;;771575;180;921580;-71
2024/01/24 04:05:02;;;;;;;4.77;2.53;;;;;;;;;;772076;179;917947;-70
2024/01/24 04:07:28;;;;;;;10.27;2.80;;;;;;;;;;772032;180;918824;-72
2024/01/24 04:09:54;;;;;;;4.53;2.67;;;;;;;;;;774687;177;918293;-70
2024/01/24 04:12:20;;;;;;;7.67;3.40;;;;;;;;;;772901;178;906780;-71
2024/01/24 04:14:46;;;;;;;5.05;2.35;;;;;;;;;;767805;180;921327;-71
2024/01/24 04:17:11;;;;;;;6.60;3.17;;;;;;;;;;771304;180;920946;-70
2024/01/24 04:19:37;;;;;;;8.53;3.03;;;;;;;;;;774897;179;813571;-71
2024/01/24 04:22:03;;;;;;;4.50;2.90;;;;;;;;;;775155;179;813874;-72
2024/01/24 04:24:29;;;;;;;13.07;3.20;;;;;;;;;;779573;179;817909;-71
2024/01/24 04:26:55;;;;;;;7.13;3.23;;;;;;;;;;777364;179;913235;-71
2024/01/24 04:29:21;;;;;;;5.07;2.57;;;;;;;;;;774372;179;929660;-71
2024/01/24 04:31:46;;;;;;;4.77;2.13;;;;;;;;;;778229;180;721834;-71
2024/01/24 04:34:12;;;;;;;7.43;2.67;;;;;;;;;;777158;179;836965;-71
2024/01/24 04:36:38;;;;;;;8.10;2.17;;;;;;;;;;773198;179;938541;-71
2024/01/24 04:39:05;;;;;;;8.50;3.00;;;;;;;;;;774658;179;644326;-71
2024/01/24 04:41:30;;;;;;;8.90;2.43;;;;;;;;;;781850;179;623900;-72
2024/01/24 04:43:56;;;;;;;6.07;4.00;;;;;;;;;;779633;179;651440;-71
2024/01/24 04:46:21;;;;;;;5.68;1.95;;;;;;;;;;779958;179;638760;-72
2024/01/24 04:48:48;;;;;;;4.37;2.60;;;;;;;;;;782007;178;699988;-70
2024/01/24 04:51:13;;;;;;;8.03;2.10;;;;;;;;;;778788;180;628107;-71
2024/01/24 04:53:39;;;;;;;3.97;1.90;;;;;;;;;;779023;179;629737;-70
2024/01/24 04:56:05;;;;;;;7.40;2.60;;;;;;;;;;778919;177;699629;-70
2024/01/24 04:58:31;;;;;;;2.70;1.43;;;;;;;;;;764412;180;919019;-70
2024/01/24 05:00:57;;;;;;;6.10;2.83;;;;;;;;;;773515;179;902655;-70
2024/01/24 05:03:22;;;;;;;6.20;2.00;;;;;;;;;;777639;177;654689;-70
2024/01/24 05:05:48;;;;;;;3.53;1.90;;;;;;;;;;766844;181;620970;-70
2024/01/24 05:08:14;;;;;;;6.83;2.50;;;;;;;;;;778750;179;626354;-70
2024/01/24 05:10:40;;;;;;;5.57;2.47;;;;;;;;;;775264;180;646274;-71
2024/01/24 05:13:06;;;;;;;11.70;3.20;;;;;;;;;;780773;179;639839;-70
2024/01/24 05:15:32;;;;;;;3.97;1.90;;;;;;;;;;779690;179;615863;-70
2024/01/24 05:17:57;;;;;;;6.97;3.30;;;;;;;;;;774152;180;918842;-70
2024/01/24 05:20:23;;;;;;;9.83;2.80;;;;;;;;;;780045;180;811221;-70
2024/01/24 05:22:49;;;;;;;4.87;3.63;;;;;;;;;;771074;180;918439;-70
2024/01/24 05:25:15;;;;;;;5.90;2.90;;;;;;;;;;778178;178;814821;-71
2024/01/24 05:27:41;;;;;;;8.63;2.20;;;;;;;;;;768389;183;798563;-71
2024/01/24 05:30:07;;;;;;;6.90;2.87;;;;;;;;;;771019;179;815707;-70
2024/01/24 05:32:33;;;;;;;5.13;3.03;;;;;;;;;;780215;179;672965;-70
2024/01/24 05:34:59;;;;;;;3.60;1.70;;;;;;;;;;778993;179;624557;-70
2024/01/24 05:37:24;;;;;;;5.63;2.33;;;;;;;;;;784461;180;632635;-71
2024/01/24 05:39:50;;;;;;;8.80;2.20;;;;;;;;;;776645;177;640621;-70
2024/01/24 05:42:16;;;;;;;7.33;2.73;;;;;;;;;;764809;180;627435;-70
2024/01/24 05:44:42;;;;;;;4.43;1.87;;;;;;;;;;776463;180;620333;-70
2024/01/24 05:47:08;;;;;;;4.23;1.73;;;;;;;;;;778808;180;632462;-70
2024/01/24 05:49:35;;;;;;;5.10;2.70;;;;;;;;;;773339;179;634968;-70
2024/01/24 05:52:00;;;;;;;4.67;1.73;;;;;;;;;;776299;180;627763;-70
2024/01/24 05:54:26;;;;;;;3.27;1.50;;;;;;;;;;777615;179;738473;-69
2024/01/24 05:56:52;;;;;;;4.32;1.98;;;;;;;;;;779446;179;638540;-70
2024/01/24 05:59:18;;;;;;;4.20;1.80;;;;;;;;;;775347;180;648675;-70
2024/01/24 06:01:44;;;;;;;3.70;1.90;;;;;;;;;;780068;180;722101;-70
2024/01/24 06:04:09;;;;;;;2.63;1.57;;;;;;;;;;775525;179;640044;-70
2024/01/24 06:06:35;;;;;;;4.20;2.23;;;;;;;;;;770106;180;926835;-70
2024/01/24 06:09:01;;;;;;;3.00;1.40;;;;;;;;;;769823;180;912803;-70
2024/01/24 06:11:27;;;;;;;4.47;2.67;;;;;;;;;;766746;180;918955;-70
2024/01/24 06:13:53;;;;;;;7.53;1.70;;;;;;;;;;774479;179;918276;-70
2024/01/24 06:16:19;;;;;;;2.63;1.80;;;;;;;;;;778174;180;918592;-70
2024/01/24 06:18:44;;;;;;;4.00;2.00;;;;;;;;;;771627;180;816775;-69
2024/01/24 06:21:10;;;;;;;3.20;1.65;;;;;;;;;;773489;179;918691;-70
2024/01/24 06:23:36;;;;;;;2.17;1.00;;;;;;;;;;775678;180;823424;-70
2024/01/24 06:26:02;;;;;;;4.37;1.60;;;;;;;;;;768050;182;917883;-70
2024/01/24 06:28:28;;;;;;;3.80;1.30;;;;;;;;;;768326;180;918970;-70
2024/01/24 06:30:54;;;;;;;6.70;1.83;;;;;;;;;;771179;180;1020695;-71
2024/01/24 06:33:19;;;;;;;5.40;1.50;;;;;;;;;;784509;179;632189;-70
2024/01/24 06:35:45;;;;;;;3.40;1.70;;;;;;;;;;778100;177;811940;-70
2024/01/24 06:38:12;;;;;;;2.10;1.27;;;;;;;;;;767791;180;769844;-69
2024/01/24 06:40:37;;;;;;;2.73;1.60;;;;;;;;;;778291;179;917093;-70
2024/01/24 06:43:03;;;;;;;6.70;1.37;;;;;;;;;;777620;179;918388;-70
2024/01/24 06:45:29;;;;;;;4.20;1.43;;;;;;;;;;772270;179;925775;-69
2024/01/24 06:47:55;;;;;;;22.13;2.10;;;;;;;;;;781879;180;918698;-70
2024/01/24 06:50:20;;;;;;;9.30;1.40;;;;;;;;;;773117;179;920315;-69
2024/01/24 06:52:46;;;;;;;4.00;1.30;;;;;;;;;;777454;179;815701;-69
2024/01/24 06:55:13;;;;;;;3.43;1.00;;;;;;;;;;776337;179;918809;-69
2024/01/24 06:57:38;;;;;;;4.00;1.60;;;;;;;;;;779321;180;919215;-70
2024/01/24 07:00:04;;;;;;;2.43;1.13;;;;;;;;;;770910;180;918738;-69
2024/01/24 07:02:30;;;;;;;3.30;1.47;;;;;;;;;;773467;179;815791;-70
2024/01/24 07:04:56;;;;;;;4.37;1.30;;;;;;;;;;776775;180;920409;-70
2024/01/24 07:07:22;;;;;;;2.70;1.53;;;;;;;;;;770821;180;921031;-70
2024/01/24 07:09:48;;;;;;;2.03;1.00;;;;;;;;;;774332;179;915309;-71
2024/01/24 07:12:13;;;;;;;6.97;1.93;;;;;;;;;;780549;180;915856;-73
2024/01/24 07:14:39;;;;;;;2.40;1.20;;;;;;;;;;766974;178;1031705;-70
2024/01/24 07:17:05;;;;;;;2.10;1.00;;;;;;;;;;762898;181;915078;-71
2024/01/24 07:19:31;;;;;;;2.50;1.10;;;;;;;;;;768711;180;917627;-71
2024/01/24 07:21:57;;;;;;;2.47;1.20;;;;;;;;;;766128;180;920019;-71
2024/01/24 07:24:23;;;;;;;2.50;1.40;;;;;;;;;;763211;180;918162;-71
2024/01/24 07:26:48;;;;;;;2.23;1.13;;;;;;;;;;772805;180;917578;-70
2024/01/24 07:29:14;;;;;;;8.83;1.47;;;;;;;;;;773014;180;814413;-70
2024/01/24 07:31:40;;;;;;;2.13;0.93;;;;;;;;;;770762;180;717526;-70
2024/01/24 07:34:07;;;;;;;2.93;1.40;;;;;;;;;;775213;179;816751;-70
2024/01/24 07:36:33;;;;;;;2.20;1.00;;;;;;;;;;783476;180;914223;-69
2024/01/24 07:38:59;;;;;;;3.03;1.10;;;;;;;;;;777818;179;633678;-71
2024/01/24 07:41:24;;;;;;;2.87;0.80;;;;;;;;;;777093;180;635768;-70
2024/01/24 07:43:50;;;;;;;2.43;1.17;;;;;;;;;;779726;180;814229;-70
2024/01/24 07:46:16;;;;;;;1.83;0.80;;;;;;;;;;772589;178;918316;-70
2024/01/24 07:48:42;;;;;;;2.03;1.10;;;;;;;;;;773993;176;923713;-70
2024/01/24 07:51:08;;;;;;;4.83;1.30;;;;;;;;;;770383;179;907361;-70
2024/01/24 07:53:34;;;;;;;1.90;0.80;;;;;;;;;;767056;181;816993;-69
2024/01/24 07:55:59;;;;;;;2.50;1.10;;;;;;;;;;778470;178;907203;-70
2024/01/24 07:58:26;;;;;;;3.30;0.93;;;;;;;;;;774777;178;912598;-69
2024/01/24 08:00:51;;;;;;;1.90;0.90;;;;;;;;;;768342;180;1021813;-70
2024/01/24 08:03:19;;;;;;;2.13;1.00;;;;;;;;;;773954;180;1021938;-70
2024/01/24 08:05:43;;;;;;;2.97;1.10;;;;;;;;;;778379;179;921520;-70
2024/01/24 08:08:09;;;;;;;2.07;0.90;;;;;;;;;;779443;179;915906;-70
2024/01/24 08:10:35;;;;;;;2.20;0.90;;;;;;;;;;776603;180;1008980;-70
2024/01/24 08:13:00;;;;;;;3.17;1.20;;;;;;;;;;771440;179;919372;-69
2024/01/24 08:15:26;;;;;;;3.10;1.10;;;;;;;;;;772766;179;918477;-70
2024/01/24 08:17:52;;;;;;;3.10;1.40;;;;;;;;;;779163;179;815766;-69
2024/01/24 08:20:19;;;;;;;2.50;1.30;;;;;;;;;;772897;179;816355;-69
2024/01/24 08:22:44;;;;;;;4.15;1.20;;;;;;;;;;773918;179;920141;-69
2024/01/24 08:25:10;;;;;;;3.90;1.40;;;;;;;;;;777760;180;917572;-70
2024/01/24 08:27:36;;;;;;;2.70;1.20;;;;;;;;;;771775;177;920802;-69
2024/01/24 08:30:02;;;;;;;7.47;1.30;;;;;;;;;;762457;180;1021660;-69
2024/01/24 08:32:27;;;;;;;2.22;1.00;;;;;;;;;;778136;180;921730;-69
2024/01/24 08:34:53;;;;;;;2.90;1.23;;;;;;;;;;773122;180;939078;-70
2024/01/24 08:37:19;;;;;;;1.97;1.00;;;;;;;;;;768647;180;919071;-69
2024/01/24 08:39:45;;;;;;;4.30;1.37;;;;;;;;;;773361;180;917846;-69
2024/01/24 08:42:10;;;;;;;3.53;1.70;;;;;;;;;;774420;180;920812;-70
2024/01/24 08:44:37;;;;;;;2.93;1.20;;;;;;;;;;774232;180;943589;-69
2024/01/24 08:47:02;;;;;;;2.70;1.20;;;;;;;;;;775989;179;919802;-70
2024/01/24 08:49:28;;;;;;;2.55;1.40;;;;;;;;;;780461;180;918916;-70
2024/01/24 08:51:54;;;;;;;4.67;1.60;;;;;;;;;;769467;179;920858;-69
2024/01/24 08:54:20;;;;;;;4.27;1.47;;;;;;;;;;769333;180;920652;-69
2024/01/24 08:56:46;;;;;;;2.93;1.20;;;;;;;;;;778693;180;941997;-69
2024/01/24 08:59:12;;;;;;;3.30;1.57;;;;;;;;;;773763;178;917001;-69
2024/01/24 09:01:38;;;;;;;2.87;1.20;;;;;;;;;;776175;179;920734;-69
2024/01/24 09:04:04;;;;;;;2.00;0.87;;;;;;;;;;780049;176;920098;-69
2024/01/24 09:06:30;;;;;;;5.17;1.40;;;;;;;;;;763490;181;918478;-70
2024/01/24 09:08:56;;;;;;;3.47;1.43;;;;;;;;;;769614;179;919366;-70
2024/01/24 09:11:21;;;;;;;5.50;1.50;;;;;;;;;;774809;180;918924;-70
2024/01/24 09:13:47;;;;;;;5.83;1.30;;;;;;;;;;777284;179;817372;-70
2024/01/24 09:16:14;;;;;;;4.53;2.00;;;;;;;;;;779221;179;812403;-70
2024/01/24 09:18:39;;;;;;;4.13;1.80;;;;;;;;;;774090;180;818350;-71
2024/01/24 09:21:05;;;;;;;4.17;1.80;;;;;;;;;;774517;180;920080;-70
2024/01/24 09:23:31;;;;;;;5.47;2.30;;;;;;;;;;767945;177;914808;-70
2024/01/24 09:25:57;;;;;;;3.30;1.70;;;;;;;;;;760915;179;905322;-70
2024/01/24 09:28:23;;;;;;;3.23;1.50;;;;;;;;;;782089;179;811198;-70
2024/01/24 09:30:49;;;;;;;4.13;2.00;;;;;;;;;;771320;179;915650;-70
2024/01/24 09:33:14;;;;;;;5.03;2.10;;;;;;;;;;773741;178;914793;-70
2024/01/24 09:35:41;;;;;;;5.30;2.00;;;;;;;;;;764369;181;906361;-71
2024/01/24 09:38:07;;;;;;;4.20;2.00;;;;;;;;;;770274;180;1009484;-70
2024/01/24 09:40:33;;;;;;;2.80;1.90;;;;;;;;;;776656;179;918467;-69
2024/01/24 09:42:59;;;;;;;5.67;2.50;;;;;;;;;;771422;181;918401;-70
2024/01/24 09:45:25;;;;;;;4.90;3.27;;;;;;;;;;775076;180;911533;-70
2024/01/24 09:47:51;;;;;;;6.13;2.80;;;;;;;;;;777390;177;810123;-70
2024/01/24 09:50:17;;;;;;;4.63;2.50;;;;;;;;;;766873;180;898939;-70
2024/01/24 09:52:43;;;;;;;7.25;2.78;;;;;;;;;;771274;180;1223990;-70
2024/01/24 09:55:09;;;;;;;6.10;2.90;;;;;;;;;;775997;180;910645;-70
2024/01/24 09:57:34;;;;;;;5.50;2.63;;;;;;;;;;777252;180;820440;-70
2024/01/24 10:00:00;;;;;;;5.00;2.90;;;;;;;;;;781754;180;884814;-70
2024/01/24 10:02:26;;;;;;;3.70;2.27;;;;;;;;;;771212;179;1015363;-70
2024/01/24 10:04:52;;;;;;;6.22;2.05;;;;;;;;;;771103;180;918957;-70
2024/01/24 10:07:18;;;;;;;5.03;1.87;;;;;;;;;;772477;180;918906;-70
2024/01/24 10:09:43;;;;;;;3.40;1.80;;;;;;;;;;780898;179;714867;-71
2024/01/24 10:12:09;;;;;;;3.13;2.20;;;;;;;;;;770377;179;914659;-70
2024/01/24 10:14:35;;;;;;;5.97;2.43;;;;;;;;;;776750;179;913469;-71
2024/01/24 10:17:01;;;;;;;4.23;1.87;;;;;;;;;;782563;180;915459;-70
2024/01/24 10:19:27;;;;;;;6.87;3.03;;;;;;;;;;772486;179;925271;-70
2024/01/24 10:21:53;;;;;;;6.53;3.53;;;;;;;;;;773694;180;791518;-71
2024/01/24 10:24:18;;;;;;;4.73;2.43;;;;;;;;;;779401;179;919339;-71
2024/01/24 10:26:44;;;;;;;7.03;2.73;;;;;;;;;;771001;179;881894;-70
2024/01/24 10:29:11;;;;;;;5.10;2.50;;;;;;;;;;773307;180;815732;-70
2024/01/24 10:31:37;;;;;;;5.63;2.60;;;;;;;;;;771527;180;906895;-70
2024/01/24 10:34:03;;;;;;;7.33;3.23;;;;;;;;;;776464;179;919657;-72
2024/01/24 10:36:29;;;;;;;3.83;2.00;;;;;;;;;;772546;180;817556;-70
2024/01/24 10:38:55;;;;;;;6.97;2.10;;;;;;;;;;776064;180;917173;-70
2024/01/24 10:41:21;;;;;;;5.00;2.13;;;;;;;;;;779033;179;918958;-70
2024/01/24 10:43:47;;;;;;;4.73;2.37;;;;;;;;;;773185;179;912690;-70
2024/01/24 10:46:13;;;;;;;4.43;2.17;;;;;;;;;;777395;179;816034;-70
2024/01/24 10:48:38;;;;;;;4.83;3.20;;;;;;;;;;782190;180;621667;-70
2024/01/24 10:51:04;;;;;;;5.13;2.30;;;;;;;;;;774430;179;711767;-70
2024/01/24 10:53:31;;;;;;;4.27;2.50;;;;;;;;;;775698;180;931853;-70
2024/01/24 10:55:57;;;;;;;5.05;2.78;;;;;;;;;;778578;180;627719;-70
2024/01/24 10:58:22;;;;;;;4.50;2.00;;;;;;;;;;776907;180;620333;-70
2024/01/24 11:00:48;;;;;;;3.58;2.42;;;;;;;;;;775447;180;810501;-69
2024/01/24 11:03:14;;;;;;;4.03;1.80;;;;;;;;;;771598;179;926297;-70
2024/01/24 11:05:43;;;;;;;3.83;1.75;;;;;;;;;;772854;180;916162;-69
2024/01/24 11:08:11;;;;;;;3.67;2.20;;;;;;;;;;770853;179;911666;-69
2024/01/24 11:10:37;;;;;;;5.23;1.53;;;;;;;;;;761518;180;816484;-70
2024/01/24 11:13:04;;;;;;;5.00;2.87;;;;;;;;;;779637;179;866544;-69
2024/01/24 11:15:30;;;;;;;6.63;3.10;;;;;;;;;;770225;179;913381;-69
2024/01/24 11:18:02;;;;;;;6.03;3.30;;;;;;;;;;771513;179;918888;-70
2024/01/24 11:20:27;;;;;;;5.57;2.77;;;;;;;;;;773856;179;917663;-70
2024/01/24 11:22:53;;;;;;;6.13;3.63;;;;;;;;;;773785;178;1125068;-70
2024/01/24 11:25:19;;;;;;;4.10;2.50;;;;;;;;;;778535;179;813367;-70
2024/01/24 11:27:46;;;;;;;4.87;2.43;;;;;;;;;;777683;179;912168;-70
2024/01/24 11:30:16;;;;;;;4.80;2.43;;;;;;;;;;776920;180;758192;-70
2024/01/24 11:32:59;;;;;;;4.63;2.80;;;;;;;;;;773839;179;919569;-70
2024/01/24 11:35:36;;;;;;;6.27;2.90;;;;;;;;;;779203;180;847842;-70
2024/01/24 11:38:01;;;;;;;9.57;3.90;;;;;;;;;;774764;179;913268;-70
2024/01/24 11:40:27;;;;;;;7.33;2.83;;;;;;;;;;770996;179;915241;-70
2024/01/24 11:42:53;;;;;;;13.30;5.37;;;;;;;;;;773537;179;915821;-70
2024/01/24 11:45:21;;;;;;;7.60;3.83;;;;;;;;;;775320;180;916363;-70
2024/01/24 11:47:46;;;;;;;15.47;7.87;;;;;;;;;;772182;179;922605;-70
2024/01/24 11:50:12;;;;;;;8.87;4.03;;;;;;;;;;777497;180;914204;-70
2024/01/24 11:52:38;;;;;;;5.60;3.30;;;;;;;;;;779701;179;918190;-70
2024/01/24 11:55:04;;;;;;;7.57;3.50;;;;;;;;;;773085;180;929717;-70
2024/01/24 11:57:30;;;;;;;4.43;2.70;;;;;;;;;;779374;177;811663;-70
2024/01/24 11:59:56;;;;;;;5.72;3.60;;;;;;;;;;767997;180;825657;-69
2024/01/24 12:02:21;;;;;;;6.27;3.00;;;;;;;;;;776468;180;816228;-70
2024/01/24 12:04:51;;;;;;;5.67;2.60;;;;;;;;;;770079;180;816467;-69
2024/01/24 12:07:17;;;;;;;4.80;3.00;;;;;;;;;;773550;178;916254;-70
2024/01/24 12:09:43;;;;;;;7.80;3.40;;;;;;;;;;766886;181;813456;-69
2024/01/24 12:12:09;;;;;;;3.70;2.27;;;;;;;;;;776905;179;921930;-69
2024/01/24 12:14:35;;;;;;;4.10;2.37;;;;;;;;;;777150;180;818344;-69
2024/01/24 12:17:05;;;;;;;4.57;2.70;;;;;;;;;;775006;179;913245;-69
2024/01/24 12:19:31;;;;;;;6.67;3.97;;;;;;;;;;776504;179;813235;-69
2024/01/24 12:21:58;;;;;;;5.43;4.10;;;;;;;;;;776260;179;867999;-69
2024/01/24 12:24:23;;;;;;;6.20;4.10;;;;;;;;;;773235;180;920346;-69
2024/01/24 12:26:49;;;;;;;8.23;3.60;;;;;;;;;;778548;179;918469;-70
2024/01/24 12:29:15;;;;;;;4.47;3.03;;;;;;;;;;774956;180;893921;-69
2024/01/24 12:31:45;;;;;;;7.55;4.40;;;;;;;;;;775249;180;816733;-70
2024/01/24 12:34:07;;;;;;;5.50;3.70;;;;;;;;;;784104;178;749260;-70
2024/01/24 12:36:32;;;;;;;4.80;3.33;;;;;;;;;;779423;179;919235;-69
2024/01/24 12:38:58;;;;;;;8.10;4.30;;;;;;;;;;776102;179;647193;-69
2024/01/24 12:41:24;;;;;;;5.23;3.47;;;;;;;;;;776832;179;630297;-70
2024/01/24 12:43:50;;;;;;;5.77;3.87;;;;;;;;;;772734;180;624842;-70
2024/01/24 12:46:16;;;;;;;6.20;3.53;;;;;;;;;;774441;179;918512;-69
2024/01/24 12:48:43;;;;;;;5.43;3.80;;;;;;;;;;768285;180;920414;-70
2024/01/24 12:51:07;;;;;;;5.60;3.77;;;;;;;;;;776424;179;917625;-70
2024/01/24 12:53:33;;;;;;;7.10;4.00;;;;;;;;;;766348;179;917918;-70
2024/01/24 12:55:59;;;;;;;7.40;4.33;;;;;;;;;;773875;179;918540;-70
2024/01/24 12:58:25;;;;;;;7.77;4.67;;;;;;;;;;778991;180;917125;-69
2024/01/24 13:00:51;;;;;;;7.77;4.10;;;;;;;;;;762403;181;919256;-70
2024/01/24 13:03:17;;;;;;;8.35;3.75;;;;;;;;;;771018;180;923659;-70
2024/01/24 13:05:42;;;;;;;7.47;3.27;;;;;;;;;;780465;180;917917;-69
2024/01/24 13:08:08;;;;;;;7.27;4.50;;;;;;;;;;779915;177;1327583;-70
2024/01/24 13:10:36;;;;;;;8.70;4.13;;;;;;;;;;768004;179;918223;-70
2024/01/24 13:13:00;;;;;;;7.07;4.03;;;;;;;;;;779479;179;761229;-70
2024/01/24 13:15:26;;;;;;;8.40;5.10;;;;;;;;;;771199;179;918323;-70
2024/01/24 13:17:52;;;;;;;8.10;4.10;;;;;;;;;;777679;180;921800;-70
2024/01/24 13:20:17;;;;;;;8.40;4.20;;;;;;;;;;781823;176;933101;-70
2024/01/24 13:22:44;;;;;;;8.00;3.40;;;;;;;;;;782589;178;807105;-69
2024/01/24 13:25:09;;;;;;;11.87;3.87;;;;;;;;;;774235;180;907665;-70
2024/01/24 13:27:35;;;;;;;7.43;4.33;;;;;;;;;;775460;179;916688;-70
2024/01/24 13:30:01;;;;;;;6.90;4.30;;;;;;;;;;781468;180;937193;-70
2024/01/24 13:32:27;;;;;;;7.90;3.73;;;;;;;;;;776593;180;916183;-70
2024/01/24 13:34:52;;;;;;;8.37;3.80;;;;;;;;;;774521;180;917013;-70
2024/01/24 13:37:18;;;;;;;5.23;3.30;;;;;;;;;;774855;180;926518;-70
2024/01/24 13:39:44;;;;;;;7.50;4.00;;;;;;;;;;771168;180;918892;-70
2024/01/24 13:42:10;;;;;;;8.93;4.67;;;;;;;;;;768344;180;908918;-70
2024/01/24 13:44:36;;;;;;;8.50;5.03;;;;;;;;;;769251;180;911164;-69
2024/01/24 13:47:02;;;;;;;7.00;4.00;;;;;;;;;;777722;179;1227309;-70
2024/01/24 13:49:27;;;;;;;7.13;4.17;;;;;;;;;;773355;178;817256;-70
2024/01/24 13:51:53;;;;;;;7.75;3.87;;;;;;;;;;775119;179;909341;-70
2024/01/24 13:54:19;;;;;;;7.43;4.50;;;;;;;;;;778598;179;965801;-69
2024/01/24 13:56:46;;;;;;;7.63;4.90;;;;;;;;;;774022;180;905459;-70
2024/01/24 13:59:11;;;;;;;9.43;4.00;;;;;;;;;;775344;178;917681;-69
2024/01/24 14:01:37;;;;;;;8.40;4.00;;;;;;;;;;778986;180;817150;-70
2024/01/24 14:04:03;;;;;;;8.93;4.07;;;;;;;;;;776159;179;923176;-70
2024/01/24 14:06:28;;;;;;;7.87;4.30;;;;;;;;;;773670;180;1019744;-70
2024/01/24 14:08:54;;;;;;;10.20;4.45;;;;;;;;;;778682;179;921358;-69
2024/01/24 14:11:20;;;;;;;6.63;5.27;;;;;;;;;;768287;180;922422;-70
2024/01/24 14:13:48;;;;;;;8.35;4.55;;;;;;;;;;771927;180;873858;-70
2024/01/24 14:16:13;;;;;;;7.10;4.00;;;;;;;;;;773725;179;924371;-70
2024/01/24 14:18:39;;;;;;;6.57;4.30;;;;;;;;;;778036;180;922539;-70